| time (UTC) | temp F | wind direction | speed knots | gust knots | rain 1hr in | rain 24hr in | rain mn in | humidity % | barometer mb |
| 20260507231536 | 42 | 159 | 0.0 | 1.7 | 0.00 | 0.00 | 0.00 | 85 | 1016.5 |
| 20260507224548 | 42 | 159 | 2.6 | 4.3 | 0.00 | 0.00 | 0.00 | 86 | 1016.4 |
| 20260507223027 | 42 | 159 | 0.0 | 0.0 | 0.00 | 0.00 | 0.00 | 87 | 1016.4 |
| 20260507221534 | 42 | 159 | 0.9 | 2.6 | 0.00 | 0.00 | 0.00 | 86 | 1016.3 |
| 20260507220029 | 41 | 159 | 1.7 | 2.6 | 0.00 | 0.00 | 0.00 | 86 | 1016.4 |
| 20260507214529 | 41 | 159 | 0.9 | 3.5 | 0.00 | 0.00 | 0.00 | 86 | 1016.3 |
| 20260507213030 | 41 | 159 | 1.7 | 4.3 | 0.00 | 0.00 | 0.00 | 84 | 1016.3 |
| 20260507211520 | 41 | 159 | 2.6 | 3.5 | 0.00 | 0.00 | 0.00 | 84 | 1016.1 |
| 20260507210041 | 42 | 159 | 0.0 | 1.7 | 0.00 | 0.00 | 0.00 | 83 | 1015.8 |
| 20260507204518 | 42 | 159 | 0.9 | 4.3 | 0.00 | 0.00 | 0.00 | 83 | 1015.7 |
| 20260507203021 | 43 | 159 | 0.9 | 2.6 | 0.00 | 0.00 | 0.00 | 83 | 1015.8 |
| 20260507201518 | 43 | 159 | 0.9 | 1.7 | 0.00 | 0.00 | 0.00 | 83 | 1015.9 |
| 20260507200022 | 43 | 159 | 0.0 | 2.6 | 0.00 | 0.00 | 0.00 | 82 | 1015.6 |
| 20260507194511 | 43 | 159 | 1.7 | 3.5 | 0.00 | 0.00 | 0.00 | 81 | 1015.3 |
| 20260507193018 | 44 | 159 | 0.9 | 1.7 | 0.00 | 0.00 | 0.00 | 80 | 1014.9 |
| 20260507191521 | 44 | 159 | 1.7 | 2.6 | 0.00 | 0.00 | 0.00 | 79 | 1014.5 |
| 20260507190009 | 45 | 159 | 0.0 | 1.7 | 0.00 | 0.00 | 0.00 | 79 | 1014.1 |
| 20260507184508 | 45 | 159 | 1.7 | 3.5 | 0.00 | 0.00 | 0.00 | 78 | 1014.0 |
| 20260507183008 | 46 | 119 | 0.0 | 1.7 | 0.00 | 0.00 | 0.00 | 76 | 1013.9 |
| 20260507181507 | 47 | 119 | 0.9 | 2.6 | 0.00 | 0.00 | 0.00 | 73 | 1013.7 |
| 20260507180008 | 48 | 119 | 0.0 | 1.7 | 0.00 | 0.00 | 0.00 | 72 | 1013.5 |
| 20260507174506 | 48 | 119 | 0.0 | 2.6 | 0.00 | 0.00 | 0.00 | 70 | 1013.3 |
| 20260507173015 | 50 | 119 | 0.9 | 2.6 | 0.00 | 0.00 | 0.00 | 67 | 1013.1 |
| 20260507171505 | 51 | 38 | 0.0 | 2.6 | 0.00 | 0.00 | 0.00 | 61 | 1013.0 |
| 20260507170005 | 51 | 16 | 0.9 | 4.3 | 0.00 | 0.00 | 0.00 | 59 | 1013.0 |
| 20260507164504 | 51 | 78 | 0.0 | 1.7 | 0.00 | 0.00 | 0.00 | 61 | 1012.9 |
| 20260507163004 | 51 | 78 | 0.0 | 1.7 | 0.00 | 0.00 | 0.00 | 58 | 1012.9 |
| 20260507161503 | 52 | 78 | 0.9 | 2.6 | 0.00 | 0.00 | 0.00 | 56 | 1012.9 |
| 20260507160003 | 52 | 44 | 0.9 | 1.7 | 0.00 | 0.00 | 0.00 | 54 | 1013.1 |
| 20260507154501 | 52 | 22 | 0.9 | 3.5 | 0.00 | 0.00 | 0.00 | 52 | 1013.0 |
| 20260507153004 | 52 | 18 | 0.0 | 2.6 | 0.00 | 0.00 | 0.00 | 52 | 1012.9 |
| 20260507151601 | 53 | 342 | 0.9 | 4.3 | 0.00 | 0.00 | 0.00 | 51 | 1012.9 |
| 20260507144605 | 54 | 43 | 0.0 | 4.3 | 0.00 | 0.00 | 0.00 | 45 | 1013.0 |
| 20260507143104 | 54 | 60 | 2.6 | 4.3 | 0.00 | 0.00 | 0.00 | 47 | 1013.0 |
| 20260507141619 | 54 | 34 | 0.0 | 3.5 | 0.00 | 0.00 | 0.00 | 45 | 1013.1 |
| 20260507140109 | 53 | 27 | 0.9 | 3.5 | 0.00 | 0.00 | 0.00 | 47 | 1013.2 |
| 20260507134606 | 55 | 340 | 0.0 | 2.6 | 0.00 | 0.00 | 0.00 | 46 | 1013.3 |
| 20260507133056 | 53 | 360 | 0.0 | 2.6 | 0.00 | 0.00 | 0.00 | 48 | 1013.5 |
| 20260507131559 | 54 | 360 | 1.7 | 7.0 | 0.00 | 0.00 | 0.00 | 46 | 1013.7 |
| 20260507130055 | 54 | 338 | 1.7 | 5.2 | 0.00 | 0.00 | 0.00 | 47 | 1013.7 |
| 20260507124553 | 53 | 17 | 0.9 | 2.6 | 0.00 | 0.00 | 0.00 | 50 | 1013.9 |
| 20260507123053 | 52 | 339 | 0.0 | 1.7 | 0.00 | 0.00 | 0.00 | 47 | 1014.0 |
| 20260507121551 | 52 | 347 | 1.7 | 5.2 | 0.00 | 0.00 | 0.00 | 50 | 1014.0 |
| 20260507120052 | 52 | 9 | 2.6 | 7.8 | 0.00 | 0.00 | 0.00 | 48 | 1014.1 |
| 20260507114555 | 52 | 355 | 1.7 | 9.6 | 0.00 | 0.00 | 0.00 | 47 | 1014.2 |
| 20260507113051 | 53 | 315 | 7.0 | 13.0 | 0.00 | 0.00 | 0.00 | 49 | 1014.3 |
| 20260507111557 | 53 | 360 | 5.2 | 12.2 | 0.00 | 0.00 | 0.00 | 51 | 1014.2 |
| 20260507110045 | 52 | 344 | 5.2 | 9.6 | 0.00 | 0.02 | 0.00 | 47 | 1014.4 |
| 20260507104541 | 52 | 321 | 3.5 | 9.6 | 0.00 | 0.02 | 0.00 | 50 | 1014.5 |
| 20260507101537 | 50 | 351 | 5.2 | 10.4 | 0.00 | 0.02 | 0.00 | 52 | 1014.8 |
| 20260507100035 | 50 | 329 | 6.1 | 11.3 | 0.00 | 0.03 | 0.00 | 56 | 1014.8 |
| 20260507094526 | 50 | 355 | 5.2 | 10.4 | 0.00 | 0.03 | 0.00 | 54 | 1014.8 |
| 20260507093022 | 49 | 40 | 3.5 | 8.7 | 0.00 | 0.03 | 0.00 | 56 | 1014.7 |
| 20260507070052 | 36 | 163 | 3.5 | 4.3 | 0.00 | 0.08 | 0.00 | 77 | 1014.7 |
| 20260507064605 | 35 | 168 | 1.7 | 5.2 | 0.00 | 0.08 | 0.00 | 78 | 1014.6 |
| 20260507063052 | 35 | 174 | 1.7 | 5.2 | 0.00 | 0.08 | 0.00 | 80 | 1014.6 |
| 20260507061546 | 35 | 188 | 1.7 | 3.5 | 0.00 | 0.08 | 0.00 | 78 | 1014.5 |
| 20260507060051 | 36 | 184 | 0.9 | 4.3 | 0.00 | 0.13 | 0.00 | 74 | 1014.4 |
| 20260507054545 | 35 | 161 | 2.6 | 4.3 | 0.00 | 0.13 | 0.00 | 77 | 1014.5 |
| 20260507053044 | 35 | 166 | 2.6 | 4.3 | 0.00 | 0.13 | 0.00 | 77 | 1014.3 |
| 20260507053013 | 35 | 166 | 3.5 | 4.3 | 0.00 | 0.13 | 0.00 | 77 | 1014.3 |
| 20260507051540 | 35 | 191 | 2.6 | 5.2 | 0.00 | 0.13 | 0.00 | 77 | 1014.1 |
| 20260507050041 | 35 | 188 | 2.6 | 6.1 | 0.00 | 0.14 | 0.00 | 76 | 1013.9 |
| 20260507044537 | 34 | 171 | 3.5 | 6.1 | 0.00 | 0.14 | 0.00 | 78 | 1013.9 |
| 20260507043035 | 34 | 180 | 3.5 | 5.2 | 0.00 | 0.14 | 0.00 | 79 | 1013.6 |
| 20260507041547 | 34 | 167 | 2.6 | 5.2 | 0.00 | 0.14 | 0.00 | 78 | 1013.5 |
| 20260507040040 | 34 | 167 | 3.5 | 5.2 | 0.00 | 0.14 | 0.00 | 76 | 1013.5 |
| 20260507034530 | 35 | 149 | 2.6 | 3.5 | 0.00 | 0.14 | 0.00 | 75 | 1013.5 |
| 20260507033033 | 35 | 167 | 2.6 | 4.3 | 0.00 | 0.14 | 0.00 | 77 | 1013.4 |
| 20260507031528 | 34 | 157 | 3.5 | 5.2 | 0.00 | 0.14 | 0.00 | 78 | 1013.4 |
| 20260507030026 | 35 | 171 | 3.5 | 5.2 | 0.00 | 0.14 | 0.00 | 77 | 1013.4 |
| 20260507024526 | 35 | 180 | 3.5 | 7.0 | 0.00 | 0.14 | 0.00 | 79 | 1013.3 |
| 20260507023025 | 35 | 157 | 2.6 | 5.2 | 0.00 | 0.14 | 0.00 | 78 | 1013.4 |
| 20260507021524 | 35 | 140 | 2.6 | 4.3 | 0.00 | 0.14 | 0.00 | 79 | 1013.3 |
| 20260507020027 | 35 | 156 | 1.7 | 5.2 | 0.00 | 0.14 | 0.00 | 79 | 1013.3 |
| 20260507014537 | 35 | 188 | 4.3 | 6.1 | 0.00 | 0.14 | 0.00 | 80 | 1013.1 |
| 20260507013035 | 35 | 167 | 2.6 | 5.2 | 0.00 | 0.14 | 0.00 | 79 | 1013.0 |
| 20260507011532 | 36 | 159 | 2.6 | 6.1 | 0.00 | 0.14 | 0.00 | 78 | 1013.0 |
| 20260507010018 | 35 | 150 | 2.6 | 5.2 | 0.00 | 0.14 | 0.00 | 80 | 1012.9 |
| 20260507004518 | 35 | 180 | 2.6 | 5.2 | 0.00 | 0.14 | 0.00 | 81 | 1012.9 |
| 20260507003017 | 35 | 167 | 2.6 | 5.2 | 0.00 | 0.14 | 0.00 | 81 | 1013.1 |
| 20260507001513 | 35 | 142 | 3.5 | 5.2 | 0.00 | 0.14 | 0.00 | 81 | 1013.2 |
| 20260507000022 | 35 | 149 | 1.7 | 5.2 | 0.00 | 0.14 | 0.00 | 82 | 1013.3 |
| 20260506234509 | 36 | 162 | 1.7 | 4.3 | 0.00 | 0.14 | 0.00 | 81 | 1013.1 |
| 20260506233009 | 36 | 161 | 2.6 | 4.3 | 0.00 | 0.14 | 0.00 | 81 | 1013.2 |